Tiempo atmosférico en la estación meteorológica de Arcos de Jalón, Soria (863 m.)



Fecha
DESCASC
Temp. máxima en grados centígrados (hora)
DESCASC
Temp. mínima en grados centígrados (hora)
DESCASC
Temp. media en grados centígrados
DESCASC
Racha de viento máxima en m/sg (hora)
DESCASC
Velocidad máxima media en intervalos de 10 minutos(hora)
DESCASC
Precipitaciones diarias en mm
DESCASC
Precipitaciones de 00:00 a 06:00 en mm
DESCASC
Precipitaciones de 06:00 a 12:00 en mm
DESCASC
Precipitaciones de 12:00 a 18:00 en mm
DESCASC
Precipitaciones de 18:00 a 24:00 en mm
DESCASC
19-01-2020 5.5 (14:50) -0.4 (23:40) 2.5 18.61 (13:30) 9.72 (15:50) 1.8 0.8 1 0 0
18-01-2020 9.6 (15:10) 0 (00:50) 4.8 18.06 (21:00) 9.72 (12:20) 4.4 0 0 0 4.4
17-01-2020 11 (15:00) 0.5 (23:59) 5.8 16.39 (01:40) 10.56 (01:40) 0.4 0.4 0 0 0
16-01-2020 13.1 (15:50) 5.7 (00:00) 9.4 12.78 (13:00) 7.78 (23:50) 0 0 0 0 0
15-01-2020 10.8 (13:50) 3 (00:00) 6.9 13.89 (13:50) 9.17 (14:00) 0 0 0 0 0
14-01-2020 9.6 (15:40) -2 (-00:0) 3.8 10.56 (22:50) 6.94 (16:20) 0 0 0 0 0
13-01-2020 11.4 (14:40) -5.4 (-00:0) 3 11.39 (13:50) 7.78 (15:50) 0 0 0 0 0
12-01-2020 11.5 (16:20) -6 (08:50) 2.8 5 (01:20) 3.89 (01:20) 0 0 0 0 0
11-01-2020 11.7 (15:30) -3.4 (-00:0) 4.1 5.56 (22:00) 3.33 (22:00) 0 0 0 0 0
10-01-2020 8.2 (00:30) 0.1 (00:00) 4.1 10 (02:20) 6.94 (02:30) 0 0 0 0 0
09-01-2020 14.5 (14:30) -0.8 (-00:0) 6.8 8.33 (15:10) 6.11 (15:10) 0 0 0 0 0
08-01-2020 12.5 (16:00) -0.5 (-00:0) 6 7.22 (04:30) 5.28 (04:40) 0 0 0 0 0
07-01-2020 15.4 (16:10) -2.9 (-00:0) 6.2 7.22 (15:30) 5.28 (15:40) 0 0 0 0 0
06-01-2020 15 (15:40) -4.2 (-00:0) 5.4 5.28 (00:10) 4.44 (00:10) 0 0 0 0 0
05-01-2020 12 (15:50) -2 (-00:0) 5 5 (09:30) 3.89 (23:00) 0 0 0 0 0
04-01-2020 10.2 (15:20) -1.4 (-00:0) 4.4 5.83 (18:40) 4.44 (18:40) 0 0 0 0 0
03-01-2020 7.8 (14:00) 1.6 (00:00) 4.7 10.83 (09:30) 6.39 (15:00) 0 0 0 0 0
02-01-2020 16.1 (15:10) 0 (00:00) 8.1 6.94 (01:30) 5.83 (21:00) 0 0 0 0 0
01-01-2020 13.1 (16:40) -1.6 (-00:0) 5.8 5.83 (01:30) 5 (01:10) 0 0 0 0 0
31-12-2019 13.3 (16:20) -0.7 (-00:0) 6.3 5.28 (20:20) 3.89 (20:20) 0 0 0 0 0
30-12-2019 -- (--) -- (--) -- -- (--) -- (--) -- 0 0 -- 0
29-12-2019 12.2 (16:10) -2.3 (-00:0) 4.9 6.39 (01:30) 4.17 (02:30) 0 0 0 0 0
28-12-2019 13.6 (16:20) -2.8 (-00:0) 5.4 7.22 (05:30) 5.28 (05:10) 0 0 0 0 0
27-12-2019 10 (16:30) -2.2 (-00:0) 3.9 7.78 (21:30) 5.56 (21:30) 0 0 0 0 0
26-12-2019 13.3 (15:10) 2.9 (00:00) 8.1 8.89 (04:50) 6.94 (04:50) 0 0 0 0 0
25-12-2019 17.8 (16:10) 1.2 (00:00) 9.5 6.39 (15:40) 4.72 (16:10) 0 0 0 0 0
24-12-2019 16.2 (13:30) 5.6 (04:50) 10.9 8.89 (01:10) 6.11 (01:00) 0 0 0 0 0
23-12-2019 12.5 (16:30) 1.6 (00:00) 7.1 7.78 (23:50) 5.83 (22:20) 0 0 0 0 0

Gráficas

Temp. máximas Temp. mínimas Temp. medias Precipitaciones Rachas de viento máximas Velocidades máximas media en intervalos de 10 minutos

Datos horarios

Fecha y hora oficial Temperatura (ºC) Velocidad del viento (km/h) Dirección del viento Racha (km/h) Dirección de racha Precipitación (mm) Presión (hPa) Tendencia (hPa) Humedad (%)
2020-01-21 23:00:00 -- -- -- -- -- -- -- -- --
2020-01-21 22:00:00 -- -- -- -- -- -- -- -- --
2020-01-21 21:00:00 0.8 7 Nordeste 17 Norte 2 -- -- 95
2020-01-21 20:00:00 1.1 3 Nordeste 9 Este 2.8 -- -- 95
2020-01-21 19:00:00 0.9 2 Norte 8 Noroeste 1.8 -- -- 96
2020-01-21 18:00:00 0.5 0 Calma 0 Calma 0.8 -- -- 95
2020-01-21 17:00:00 0.6 0 Calma -- -- 0.2 -- -- 96
2020-01-21 16:00:00 0.3 0 Calma -- -- 0.2 -- -- 96
2020-01-21 15:00:00 0.5 0 Calma 11 Norte 0.2 -- -- 96
2020-01-21 14:00:00 0.4 8 Nordeste 20 Norte 0.6 -- -- 95
2020-01-21 13:00:00 0.5 0 Calma 14 Nordeste 0.2 -- -- 95
2020-01-21 12:00:00 0.6 8 Nordeste 14 Nordeste 0.4 -- -- 95
2020-01-21 11:00:00 0.4 7 Nordeste 15 Norte 0 -- -- 95
2020-01-21 10:00:00 0.2 7 Nordeste 12 Nordeste 0 -- -- 95
2020-01-21 09:00:00 0.2 6 Nordeste 13 Nordeste 0 -- -- 94
2020-01-21 08:00:00 0.1 6 Norte 19 Nordeste 0 -- -- 93
2020-01-21 07:00:00 0.2 13 Nordeste 22 Nordeste 0 -- -- 93
2020-01-21 06:00:00 -0.1 7 Nordeste 23 Norte 0 -- -- 93
2020-01-21 05:00:00 -0.2 14 Norte 26 Nordeste 0 -- -- 92
2020-01-21 04:00:00 -0.4 10 Nordeste 18 Nordeste 0 -- -- 90
2020-01-21 03:00:00 -0.4 9 Nordeste 20 Norte 0 -- -- 88
2020-01-21 02:00:00 -0.4 8 Nordeste 22 Norte 0 -- -- 84
2020-01-21 01:00:00 -0.6 12 Nordeste 18 Norte 0 -- -- 79
2020-01-21 00:00:00 -0.4 9 Norte 32 Norte 0 -- -- 76
2020-01-20 23:00:00 -0.2 15 Nordeste 32 Nordeste 0 -- -- 75
2020-01-20 22:00:00 0.2 18 Nordeste 30 Nordeste 0 -- -- 73
2020-01-20 21:00:00 0.8 7 Nordeste 17 Nordeste 0 -- -- 68
2020-01-20 20:00:00 0.8 14 Nordeste 28 Nordeste 0 -- -- 68
2020-01-20 19:00:00 1.1 18 Nordeste 29 Nordeste 0 -- -- 65
2020-01-20 18:00:00 2.1 16 Nordeste 27 Nordeste 0 -- -- 57
2020-01-20 17:00:00 3.3 13 Norte 28 Nordeste 0 -- -- 53
2020-01-20 16:00:00 2.8 7 Norte 14 Norte 0 -- -- 55
2020-01-20 15:00:00 2 3 Norte 9 Nordeste 0 -- -- 53
2020-01-20 14:00:00 1.6 5 Nordeste 27 Norte 0 -- -- 52
2020-01-20 13:00:00 1.4 14 Norte 39 Noroeste 0 -- -- 53
2020-01-20 12:00:00 0.5 22 Noroeste 47 Noroeste 0 -- -- 54
2020-01-20 11:00:00 -0.1 22 Noroeste 41 Noroeste 0 -- -- 56
2020-01-20 10:00:00 -0.7 17 Norte 35 Norte 0 -- -- 58
2020-01-20 09:00:00 -1.7 13 Norte 28 Nordeste 0 -- -- 62
2020-01-20 08:00:00 -2 12 Norte 30 Norte 0 -- -- 62
2020-01-20 07:00:00 -2 9 Norte 31 Norte 0 -- -- 62
2020-01-20 06:00:00 -1.6 12 Norte 32 Norte 0 -- -- 59
2020-01-20 05:00:00 -1.3 14 Norte 39 Norte 0 -- -- 59
2020-01-20 04:00:00 -1.2 17 Norte 40 Noroeste 0 -- -- 61
2020-01-20 03:00:00 -1.3 13 Noroeste 38 Norte 0 -- -- 63
2020-01-20 02:00:00 -1 17 Norte 48 Norte 0 -- -- 62
2020-01-20 01:00:00 -0.6 23 Noroeste 50 Norte 0 -- -- 61
2020-01-20 00:00:00 -0.4 24 Noroeste 46 Norte 0 -- -- 61
2020-01-19 23:00:00 -0.1 22 Norte 55 Norte 0 -- -- 61
2020-01-19 22:00:00 0.4 22 Norte 52 Norte 0 -- -- 59
2020-01-19 21:00:00 1 20 Norte 49 Norte 0 -- -- 56
2020-01-19 20:00:00 1.4 24 Noroeste 50 Noroeste 0 -- -- 53
2020-01-19 19:00:00 1.4 22 Noroeste 57 Noroeste 0 -- -- 54
2020-01-19 18:00:00 2.6 24 Noroeste 59 Noroeste 0 -- -- 49
2020-01-19 17:00:00 4.4 34 Noroeste 66 Noroeste 0 -- -- 45
2020-01-19 16:00:00 5 27 Noroeste 62 Noroeste 0 -- -- 48
2020-01-19 15:00:00 5.5 30 Noroeste 56 Norte 0 -- -- 50
2020-01-19 14:00:00 4.3 26 Noroeste 67 Noroeste 0 -- -- 52
2020-01-19 13:00:00 3.8 29 Noroeste 60 Noroeste 0 -- -- 59
2020-01-19 12:00:00 3.6 31 Noroeste 56 Noroeste 0 -- -- 64
2020-01-19 11:00:00 3.5 26 Noroeste 56 Noroeste 0.2 -- -- 74
2020-01-19 10:00:00 3.2 13 Norte 34 Norte 0 -- -- 82
2020-01-19 09:00:00 3.1 8 Norte 19 Norte 0.6 -- -- 90
2020-01-19 08:00:00 3 6 Noroeste 21 Oeste 0.2 -- -- 89
2020-01-19 07:00:00 3.1 12 Oeste 18 Oeste 0 -- -- 91
2020-01-19 06:00:00 2.7 6 Sudoeste 19 Oeste 0.4 -- -- 91
2020-01-19 05:00:00 2.7 5 Oeste 15 Oeste 0 -- -- 92
2020-01-19 04:00:00 3.4 10 Oeste 19 Oeste 0 -- -- 90
2020-01-19 03:00:00 4.3 8 Oeste 12 Oeste 0 -- -- 93
2020-01-19 02:00:00 4 2 Oeste 14 Oeste 0.2 -- -- 92
2020-01-19 01:00:00 4.1 6 Sudoeste 11 Sudoeste 0.2 -- -- 92
2020-01-19 00:00:00 3.8 3 Sudoeste 11 Sudoeste 0 -- -- 91
2020-01-18 23:00:00 4.1 3 Sur 13 Sudoeste 0 -- -- 92
2020-01-18 22:00:00 3.6 14 Sudoeste 42 Sudoeste 3.2 -- -- 90
2020-01-18 21:00:00 6 34 Sudoeste 65 Oeste 1.2 -- -- 79
2020-01-18 20:00:00 7.5 17 Sudoeste 33 Sudoeste 0 -- -- 87
2020-01-18 19:00:00 8 25 Sudoeste 39 Sudoeste 0 -- -- 83
2020-01-18 18:00:00 7.8 21 Sudoeste 44 Sur 0 -- -- 83
2020-01-18 17:00:00 8.2 24 Sur 46 Sur 0 -- -- 79
2020-01-18 16:00:00 9.1 27 Sur 54 Sur 0 -- -- 72
2020-01-18 15:00:00 9.5 33 Sur 49 Sur 0 -- -- 71
2020-01-18 14:00:00 8.2 15 Sur 40 Sudoeste 0 -- -- 75
2020-01-18 13:00:00 6.9 21 Sur 54 Sur 0 -- -- 79
2020-01-18 12:00:00 7.7 28 Sudoeste 48 Sudoeste 0 -- -- 76
2020-01-18 11:00:00 6.8 24 Sudoeste 43 Sudoeste 0 -- -- 78
2020-01-18 10:00:00 5.6 8 Sur 30 Sur 0 -- -- 88
2020-01-18 09:00:00 5 14 Sur 23 Sur 0 -- -- 87
2020-01-18 08:00:00 4.6 9 Sudoeste 22 Sudoeste 0 -- -- 89
2020-01-18 07:00:00 3.3 11 Sur 17 Sudoeste 0 -- -- 91
2020-01-18 06:00:00 2.7 5 Sudoeste 16 Sudoeste 0 -- -- 88
2020-01-18 05:00:00 0.6 8 Oeste 17 Sudoeste 0 -- -- 86
2020-01-18 04:00:00 1.2 6 Sudoeste 18 Oeste 0 -- -- 83
2020-01-18 03:00:00 0.3 12 Sudoeste 16 Sudoeste 0 -- -- 85
2020-01-18 02:00:00 0.2 10 Sudoeste 19 Sudoeste 0 -- -- 84
2020-01-18 01:00:00 0 10 Oeste 15 Oeste 0 -- -- 85
2020-01-18 00:00:00 0.5 10 Sudoeste 14 Sudoeste 0 -- -- 83
2020-01-17 23:00:00 1.5 10 Sudoeste 16 Oeste 0 -- -- 79
2020-01-17 22:00:00 2 10 Sudoeste 14 Oeste 0 -- -- 78
2020-01-17 21:00:00 3 10 Oeste 14 Oeste 0 -- -- 77
2020-01-17 20:00:00 4.5 4 Sur 8 Oeste 0 -- -- 72
2020-01-17 19:00:00 6 4 Sudoeste 22 Oeste 0 -- -- 65
2020-01-17 18:00:00 7.9 19 Sudoeste 36 Oeste 0 -- -- 57
2020-01-17 17:00:00 8.9 27 Oeste 42 Oeste 0 -- -- 55
2020-01-17 16:00:00 9.7 26 Sudoeste 44 Oeste 0 -- -- 53
2020-01-17 15:00:00 11 24 Sudoeste 41 Oeste 0 -- -- 52
2020-01-17 14:00:00 10.1 20 Sudoeste 40 Sudoeste 0 -- -- 63
2020-01-17 13:00:00 9.2 30 Sudoeste 43 Sudoeste 0 -- -- 67
2020-01-17 12:00:00 7.9 27 Sudoeste 39 Sudoeste 0 -- -- 75
2020-01-17 11:00:00 7.1 19 Sudoeste 36 Sudoeste 0 -- -- 80
2020-01-17 10:00:00 6.8 23 Sudoeste 40 Sudoeste 0 -- -- 80
2020-01-17 09:00:00 5.6 18 Sudoeste 28 Sudoeste 0 -- -- 82
2020-01-17 08:00:00 5.9 18 Sur 36 Sudoeste 0 -- -- 80
2020-01-17 07:00:00 5.8 21 Sudoeste 36 Sudoeste 0 -- -- 80
2020-01-17 06:00:00 6.1 24 Sudoeste 50 Sur 0 -- -- 78
2020-01-17 05:00:00 6.1 27 Sudoeste 47 Sudoeste 0 -- -- 77
2020-01-17 04:00:00 6.2 26 Sur 38 Sur 0 -- -- 74
2020-01-17 03:00:00 5.7 12 Sudoeste 25 Sudoeste 0 -- -- 76
2020-01-17 02:00:00 6.7 22 Sudoeste 59 Sudoeste 0.4 -- -- 74
2020-01-17 01:00:00 8.6 21 Sur 41 Sur 0 -- -- 57
2020-01-17 00:00:00 8.4 25 Sur 41 Sur 0 -- -- 58
2020-01-16 23:00:00 8.9 21 Sur 35 Sur 0 -- -- 59
2020-01-16 22:00:00 7.4 11 Sur 22 Sur 0 -- -- 70
2020-01-16 21:00:00 6.1 0 Calma 19 Sur 0 -- -- 74
2020-01-16 20:00:00 8.2 9 Sudoeste 19 Sudoeste 0 -- -- 70
2020-01-16 19:00:00 9 13 Sudoeste 26 Sudoeste 0 -- -- 68
2020-01-16 18:00:00 10.2 18 Sur 39 Sudoeste 0 -- -- 63
2020-01-16 17:00:00 12 20 Sur 38 Sur 0 -- -- 59
2020-01-16 16:00:00 13 21 Sur 41 Sur 0 -- -- 63
2020-01-16 15:00:00 12.5 23 Sur 39 Sur 0 -- -- 67
2020-01-16 14:00:00 11.4 23 Sudoeste 44 Sur 0 -- -- 72
2020-01-16 13:00:00 11.4 25 Sudoeste 46 Sur 0 -- -- 72
2020-01-16 12:00:00 12.2 18 Sudoeste 36 Sudoeste 0 -- -- 70
2020-01-16 11:00:00 10.2 17 Sur 31 Sudoeste 0 -- -- 76
2020-01-16 10:00:00 9.7 19 Sur 31 Sudoeste 0 -- -- 80
2020-01-16 09:00:00 7.6 12 Sudoeste 19 Sur 0 -- -- 87
2020-01-16 08:00:00 7.4 8 Sudoeste 20 Sur 0 -- -- 84
2020-01-16 07:00:00 7.7 22 Sur 34 Sur 0 -- -- 85
2020-01-16 06:00:00 7.8 13 Sudoeste 22 Sudoeste 0 -- -- 85
2020-01-16 05:00:00 7.5 6 Sudoeste 22 Sudoeste 0 -- -- 87
2020-01-16 04:00:00 7.4 8 Sudoeste 23 Sudoeste 0 -- -- 85
2020-01-16 03:00:00 7.2 14 Sudoeste 29 Sudoeste 0 -- -- 84
2020-01-16 02:00:00 7 15 Sudoeste 32 Sudoeste 0 -- -- 85
2020-01-16 01:00:00 7.3 19 Sudoeste 30 Sudoeste 0 -- -- 83
2020-01-16 00:00:00 7.2 17 Sudoeste 25 Sudoeste 0 -- -- 85
2020-01-15 23:00:00 7.2 8 Oeste 26 Sudoeste 0 -- -- 84
2020-01-15 22:00:00 7.1 15 Sudoeste 26 Sudoeste 0 -- -- 83
2020-01-15 21:00:00 7.2 12 Sudoeste 25 Sur 0 -- -- 80
2020-01-15 20:00:00 7.2 16 Sudoeste 25 Sudoeste 0 -- -- 80
2020-01-15 19:00:00 7.1 10 Oeste 37 Sudoeste 0 -- -- 78
2020-01-15 18:00:00 7.5 18 Sudoeste 37 Sudoeste 0 -- -- 75
2020-01-15 17:00:00 8.4 22 Sudoeste 39 Sur 0 -- -- 71
2020-01-15 16:00:00 9.2 27 Sur 41 Sudoeste 0 -- -- 67
2020-01-15 15:00:00 10.1 24 Sur 45 Sur 0 -- -- 64
2020-01-15 14:00:00 10.7 33 Sur 50 Sur 0 -- -- 62
2020-01-15 13:00:00 10 18 Sur 41 Sudoeste 0 -- -- 65
2020-01-15 12:00:00 8.4 22 Sudoeste 40 Sudoeste 0 -- -- 70
2020-01-15 11:00:00 7.5 26 Sur 46 Sur 0 -- -- 73
2020-01-15 10:00:00 6.1 25 Sudoeste 37 Sudoeste 0 -- -- 78
2020-01-15 09:00:00 5.2 21 Sudoeste 35 Sudoeste 0 -- -- 81
2020-01-15 08:00:00 5.2 25 Sudoeste 37 Sudoeste 0 -- -- 80
2020-01-15 07:00:00 5.2 21 Sur 35 Sur 0 -- -- 80
2020-01-15 06:00:00 4.8 18 Sudoeste 39 Sur 0 -- -- 79
2020-01-15 05:00:00 5.2 19 Sudoeste 39 Sur 0 -- -- 79
2020-01-15 04:00:00 5 21 Sudoeste 36 Sudoeste 0 -- -- 79
2020-01-15 03:00:00 4.8 18 Sudoeste 36 Sur 0 -- -- 78
2020-01-15 02:00:00 4.7 14 Sudoeste 38 Sur 0 -- -- 80
2020-01-15 01:00:00 4.2 22 Sudoeste 39 Sudoeste 0 -- -- 80
2020-01-15 00:00:00 3.4 14 Sudoeste 35 Sudoeste 0 -- -- 79
2020-01-14 23:00:00 3.4 18 Sudoeste 38 Sur 0 -- -- 79
2020-01-14 22:00:00 1.7 13 Sudoeste 18 Sudoeste 0 -- -- 89
2020-01-14 21:00:00 0.4 12 Sudoeste 17 Sudoeste 0 -- -- 86
2020-01-14 20:00:00 0.9 8 Sudoeste 12 Sudoeste 0 -- -- 80
2020-01-14 19:00:00 2.7 8 Sudoeste 19 Sudoeste 0 -- -- 75
2020-01-14 18:00:00 5.5 14 Sudoeste 25 Sudoeste 0 -- -- 64
2020-01-14 17:00:00 8.7 22 Sudoeste 33 Sudoeste 0 -- -- 51
2020-01-14 16:00:00 9.5 23 Sudoeste 31 Sudoeste 0 -- -- 51
2020-01-14 15:00:00 8.3 18 Oeste 31 Sudoeste 0 -- -- 60
2020-01-14 14:00:00 6.9 23 Sudoeste 32 Sudoeste 0 -- -- 64
2020-01-14 13:00:00 5.9 23 Sudoeste 30 Sudoeste 0 -- -- 67
2020-01-14 12:00:00 4.1 19 Sudoeste 28 Sudoeste 0 -- -- 74
2020-01-14 11:00:00 2.7 15 Sur 33 Sudoeste 0 -- -- 81
2020-01-14 10:00:00 3 14 Sur 25 Sur 0 -- -- 82
2020-01-14 09:00:00 0.3 10 Sudoeste 24 Sudoeste 0 -- -- 91
2020-01-14 08:00:00 -1.8 0 Calma 5 Sudeste 0 -- -- 87
2020-01-14 07:00:00 -1.7 2 Oeste 17 Sudoeste 0 -- -- 84
2020-01-14 06:00:00 -0.3 13 Sudoeste 24 Sudoeste 0 -- -- 82
2020-01-14 05:00:00 -1.3 5 Sudoeste 13 Sudoeste 0 -- -- 84
2020-01-14 04:00:00 -0.2 8 Sudoeste 17 Sudoeste 0 -- -- 81
2020-01-14 03:00:00 0.6 9 Sudoeste 25 Sudoeste 0 -- -- 79
2020-01-14 02:00:00 1.3 17 Sudoeste 31 Sudoeste 0 -- -- 77
2020-01-14 01:00:00 1.7 18 Sudoeste 31 Sudoeste 0 -- -- 76
2020-01-14 00:00:00 1.9 19 Sudoeste 26 Sur 0 -- -- 76
2020-01-13 23:00:00 2.2 6 Sudoeste 22 Sudoeste 0 -- -- 73
2020-01-13 22:00:00 2.9 15 Sudoeste 30 Sudoeste 0 -- -- 72
2020-01-13 21:00:00 3.9 16 Sudoeste 31 Sudoeste 0 -- -- 69
2020-01-13 20:00:00 3 9 Sudoeste 23 Sudoeste 0 -- -- 67
2020-01-13 19:00:00 5.3 14 Sudoeste 27 Sur 0 -- -- 60
2020-01-13 18:00:00 6.9 10 Sudoeste 33 Sudoeste 0 -- -- 50
2020-01-13 17:00:00 9 16 Sudoeste 35 Sudoeste 0 -- -- 43
2020-01-13 16:00:00 9.7 24 Sudoeste 39 Sudoeste 0 -- -- 37
2020-01-13 15:00:00 11.2 22 Sudoeste 33 Sudoeste 0 -- -- 34
2020-01-13 14:00:00 10.2 21 Sudoeste 41 Sudoeste 0 -- -- 33
2020-01-13 13:00:00 9.4 17 Sur 33 Sudoeste 0 -- -- 42
2020-01-13 12:00:00 7.5 19 Sur 30 Sur 0 -- -- 50
2020-01-13 11:00:00 0.6 4 Nordeste 8 Nordeste 0 -- -- 80
2020-01-13 10:00:00 -2.4 0 Calma 4 Sudoeste 0 -- -- 86
2020-01-13 09:00:00 -5.1 2 Sudoeste 4 Sudoeste 0 -- -- 87
2020-01-13 08:00:00 -5 0 Calma 4 Sudoeste 0 -- -- 85
2020-01-13 07:00:00 -4.3 0 Calma 2 Norte 0 -- -- 83
2020-01-13 06:00:00 -3.5 0 Calma 13 Oeste 0 -- -- 79
2020-01-13 05:00:00 -1.4 11 Sudoeste 14 Sudoeste 0 -- -- 77
2020-01-13 04:00:00 -1.8 10 Sudoeste 15 Oeste 0 -- -- 80
2020-01-13 03:00:00 -1.4 8 Sudoeste 16 Sudoeste 0 -- -- 80
2020-01-13 02:00:00 -1.4 10 Sudoeste 17 Sudoeste 0 -- -- 82
2020-01-13 01:00:00 -0.7 10 Oeste 18 Sudoeste 0 -- -- 81
2020-01-13 00:00:00 -0.3 10 Sudoeste 18 Sudoeste 0 -- -- 81
2020-01-12 23:00:00 -0.5 13 Sudoeste 18 Sudoeste 0 -- -- 81
2020-01-12 22:00:00 0 9 Sudoeste 14 Sudoeste 0 -- -- 79
2020-01-12 21:00:00 0.5 9 Sudoeste 13 Sudoeste 0 -- -- 77
2020-01-12 20:00:00 0.5 9 Sudoeste 11 Sudoeste 0 -- -- 76
2020-01-12 19:00:00 2.8 5 Sudoeste 10 Sudoeste 0 -- -- 70
2020-01-12 18:00:00 7.2 6 Sudoeste 10 Noroeste 0 -- -- 59
2020-01-12 17:00:00 10.4 3 Norte 8 Norte 0 -- -- 51
2020-01-12 16:00:00 11 2 Este 12 Norte 0 -- -- 53
2020-01-12 15:00:00 10.1 6 Norte 14 Norte 0 -- -- 54
2020-01-12 14:00:00 9.1 5 Norte 17 Nordeste 0 -- -- 53
2020-01-12 13:00:00 7.3 6 Nordeste 11 Nordeste 0 -- -- 53
2020-01-12 12:00:00 5 5 Nordeste 9 Norte 0 -- -- 57
2020-01-12 11:00:00 2.3 6 Norte 13 Noroeste 0 -- -- 64
2020-01-12 10:00:00 -2.3 0 Calma 3 Sur 0 -- -- 78
2020-01-12 09:00:00 -5.8 0 Calma 5 Oeste 0 -- -- 84
2020-01-12 08:00:00 -5.5 0 Calma 3 Este 0 -- -- 78
2020-01-12 07:00:00 -4.6 2 Nordeste 5 Nordeste 0 -- -- 75
2020-01-12 06:00:00 -2.8 0 Calma 14 Sudoeste 0 -- -- 66
2020-01-12 05:00:00 -1.1 9 Sudoeste 16 Sudoeste 0 -- -- 60
2020-01-12 04:00:00 -2.3 8 Sur 14 Sudoeste 0 -- -- 66
2020-01-12 03:00:00 -2 9 Sudoeste 14 Sudoeste 0 -- -- 66
2020-01-12 02:00:00 -1.1 13 Sudoeste 18 Oeste 0 -- -- 66
2020-01-12 01:00:00 -1.5 10 Sudoeste 14 Sudoeste 0 -- -- 72
2020-01-12 00:00:00 -0.9 5 Sudoeste 8 Sudoeste 0 -- -- 74
2020-01-11 23:00:00 -0.3 5 Sudoeste 17 Sudoeste 0 -- -- 73
2020-01-11 22:00:00 0.8 12 Oeste 20 Sudoeste 0 -- -- 68
2020-01-11 21:00:00 0.9 9 Sudoeste 14 Sudoeste 0 -- -- 66
2020-01-11 20:00:00 1.6 4 Sudoeste 15 Oeste 0 -- -- 58
2020-01-11 19:00:00 2.5 4 Sudoeste 13 Sudoeste 0 -- -- 53
2020-01-11 18:00:00 6.6 3 Sudoeste 10 Oeste 0 -- -- 49
2020-01-11 17:00:00 10.1 3 Noroeste 12 Noroeste 0 -- -- 46
2020-01-11 16:00:00 10.5 2 Norte 7 Norte 0 -- -- 39
2020-01-11 15:00:00 10.4 3 Nordeste 6 Noroeste 0 -- -- 40
2020-01-11 14:00:00 9.7 4 Este 10 Este 0 -- -- 42
2020-01-11 13:00:00 8.7 3 Sudeste 7 Nordeste 0 -- -- 48
2020-01-11 12:00:00 6.8 4 Sudoeste 6 Oeste 0 -- -- 58
2020-01-11 11:00:00 4 4 Sur 11 Sudoeste 0 -- -- 76
2020-01-11 10:00:00 0 6 Sudoeste 11 Sudoeste 0 -- -- 88
2020-01-11 09:00:00 -2.8 9 Sudoeste 11 Sudoeste 0 -- -- 89
2020-01-11 08:00:00 -3.2 8 Sudoeste 12 Sudoeste 0 -- -- 88
2020-01-11 07:00:00 -2.3 8 Sudoeste 16 Sudoeste 0 -- -- 85
2020-01-11 06:00:00 -2.7 5 Sudoeste 15 Oeste 0 -- -- 87
2020-01-11 05:00:00 -2.1 7 Sudoeste 11 Oeste 0 -- -- 88
2020-01-11 04:00:00 -2.1 6 Sudoeste 11 Sudoeste 0 -- -- 88
2020-01-11 03:00:00 -2.1 7 Sudoeste 9 Sudoeste 0 -- -- 88
2020-01-11 02:00:00 -1.6 5 Sudoeste 13 Sudoeste 0 -- -- 86
2020-01-11 01:00:00 -0.5 5 Sudoeste 12 Oeste 0 -- -- 85
2020-01-11 00:00:00 0.1 2 Sudoeste 7 Sudoeste 0 -- -- 81
2020-01-10 23:00:00 1.4 0 Calma 9 Sur 0 -- -- 82
2020-01-10 22:00:00 0.9 4 Sudoeste 7 Sudeste 0 -- -- 80
2020-01-10 21:00:00 1.7 3 Noroeste 10 Noroeste 0 -- -- 77
2020-01-10 20:00:00 3.7 0 Calma 10 Norte 0 -- -- 71
2020-01-10 19:00:00 5.4 5 Noroeste 12 Norte 0 -- -- 67
2020-01-10 18:00:00 6.5 7 Norte 32 Noroeste 0 -- -- 62
2020-01-10 17:00:00 7.3 12 Norte 28 Norte 0 -- -- 60
2020-01-10 16:00:00 7.7 13 Norte 27 Noroeste 0 -- -- 59
2020-01-10 15:00:00 7.8 14 Norte 34 Noroeste 0 -- -- 56
2020-01-10 14:00:00 7.5 14 Norte 29 Noroeste 0 -- -- 57
2020-01-10 13:00:00 7.1 9 Noroeste 28 Norte 0 -- -- 61
2020-01-10 12:00:00 6.4 14 Norte 28 Noroeste 0 -- -- 60
2020-01-10 11:00:00 6.1 3 Norte 21 Oeste 0 -- -- 71
2020-01-10 10:00:00 3.2 2 Oeste 6 Oeste 0 -- -- 82
2020-01-10 09:00:00 0.2 0 Calma 20 Oeste 0 -- -- 87
2020-01-10 08:00:00 0.5 10 Oeste 15 Oeste 0 -- -- 88
2020-01-10 07:00:00 1.4 8 Sudoeste 10 Sudoeste 0 -- -- 85
2020-01-10 06:00:00 3.4 2 Norte 19 Oeste 0 -- -- 80
2020-01-10 05:00:00 3.1 4 Norte 17 Sudoeste 0 -- -- 80
2020-01-10 04:00:00 4.2 12 Sudoeste 27 Sudoeste 0 -- -- 75
2020-01-10 03:00:00 6.3 15 Sudoeste 36 Oeste 0 -- -- 71
2020-01-10 02:00:00 7.4 17 Oeste 35 Noroeste 0 -- -- 73
2020-01-10 01:00:00 8.1 8 Sudoeste 23 Sudoeste 0 -- -- 79
2020-01-10 00:00:00 7 10 Sudoeste 22 Sudoeste 0 -- -- 80
2020-01-09 23:00:00 6.4 9 Oeste 16 Oeste 0 -- -- 74
2020-01-09 22:00:00 8.6 10 Sudoeste 14 Sudoeste 0 -- -- 70
2020-01-09 21:00:00 8.7 5 Sudoeste 14 Sudoeste 0 -- -- 67
2020-01-09 20:00:00 9.4 12 Sudoeste 30 Sudoeste 0 -- -- 63
2020-01-09 19:00:00 8.5 16 Sudoeste 21 Sudoeste 0 -- -- 65
2020-01-09 18:00:00 10 8 Sudoeste 20 Sudoeste 0 -- -- 59
2020-01-09 17:00:00 13.5 12 Sur 25 Sudoeste 0 -- -- 49
2020-01-09 16:00:00 14.1 14 Sudoeste 30 Sudoeste 0 -- -- 49
2020-01-09 15:00:00 14.3 20 Sudoeste 28 Sudoeste 0 -- -- 47
2020-01-09 14:00:00 14 17 Sudoeste 27 Sudoeste 0 -- -- 51
2020-01-09 13:00:00 12.9 13 Sur 22 Sudoeste 0 -- -- 54
2020-01-09 12:00:00 7.2 6 Nordeste 11 Nordeste 0 -- -- 76
2020-01-09 11:00:00 5.4 4 Nordeste 7 Este 0 -- -- 82
2020-01-09 10:00:00 2.4 0 Calma 4 Norte 0 -- -- 93
2020-01-09 09:00:00 0.2 3 Norte 8 Nordeste 0 -- -- 94
2020-01-09 08:00:00 -0.4 2 Norte 7 Sur 0 -- -- 93
2020-01-09 07:00:00 -0.6 3 Sudoeste 7 Norte 0 -- -- 91
2020-01-09 06:00:00 -0.4 2 Norte 5 Nordeste 0 -- -- 91
2020-01-09 05:00:00 -0.3 2 Nordeste 5 Norte 0 -- -- 91
2020-01-09 04:00:00 -0.3 0 Calma 3 Norte 0 -- -- 89
2020-01-09 03:00:00 0.3 0 Calma 6 Norte 0 -- -- 88
2020-01-09 02:00:00 0.8 0 Calma 10 Sudoeste 0 -- -- 87
2020-01-09 01:00:00 0.8 4 Sudoeste 8 Sudoeste 0 -- -- 87
2020-01-09 00:00:00 2.5 2 Oeste 14 Sudoeste 0 -- -- 86
2020-01-08 23:00:00 2.7 9 Sudoeste 14 Sudoeste 0 -- -- 87
2020-01-08 22:00:00 3 10 Sudoeste 19 Sudoeste 0 -- -- 84
2020-01-08 21:00:00 3.4 10 Sudoeste 13 Sudoeste 0 -- -- 82
2020-01-08 20:00:00 3.9 10 Sudoeste 12 Sudoeste 0 -- -- 80
2020-01-08 19:00:00 6.2 0 Calma 5 Sudoeste 0 -- -- 68
2020-01-08 18:00:00 9.8 3 Norte 9 Norte 0 -- -- 60
2020-01-08 17:00:00 12.2 4 Norte 12 Nordeste 0 -- -- 51
2020-01-08 16:00:00 12.5 4 Nordeste 13 Nordeste 0 -- -- 47
2020-01-08 15:00:00 12.2 6 Nordeste 13 Nordeste 0 -- -- 49
2020-01-08 14:00:00 11.6 6 Nordeste 12 Nordeste 0 -- -- 43
2020-01-08 13:00:00 10.2 5 Nordeste 11 Este 0 -- -- 44
2020-01-08 12:00:00 9 4 Nordeste 7 Este 0 -- -- 44
2020-01-08 11:00:00 6.6 0 Calma 3 Sudoeste 0 -- -- 52
2020-01-08 10:00:00 3.3 0 Calma 6 Nordeste 0 -- -- 62
2020-01-08 09:00:00 1.5 6 Norte 10 Norte 0 -- -- 63
2020-01-08 08:00:00 -0.2 0 Calma 8 Sudoeste 0 -- -- 69
2020-01-08 07:00:00 0.1 0 Calma 14 Sudoeste 0 -- -- 66
2020-01-08 06:00:00 2.7 2 Sudoeste 15 Oeste 0 -- -- 55
2020-01-08 05:00:00 3.7 12 Sudoeste 26 Sudoeste 0 -- -- 51
2020-01-08 04:00:00 3.7 8 Sudoeste 24 Sudoeste 0 -- -- 52
2020-01-08 03:00:00 1.8 11 Sudoeste 19 Sudoeste 0 -- -- 64
2020-01-08 02:00:00 -0.1 7 Sudoeste 14 Sudoeste 0 -- -- 71
2020-01-08 01:00:00 0.2 6 Sudoeste 12 Sudoeste 0 -- -- 69
2020-01-08 00:00:00 0.4 6 Sudoeste 11 Sudoeste 0 -- -- 66
2020-01-07 23:00:00 0.9 6 Sudoeste 13 Sudoeste 0 -- -- 65
2020-01-07 22:00:00 3.9 6 Sudoeste 18 Oeste 0 -- -- 54
2020-01-07 21:00:00 5.6 12 Sudoeste 18 Oeste 0 -- -- 49
2020-01-07 20:00:00 4.9 12 Sudoeste 17 Sudoeste 0 -- -- 57
2020-01-07 19:00:00 5 0 Calma 5 Sudoeste 0 -- -- 56
2020-01-07 18:00:00 8.5 5 Sudoeste 19 Noroeste 0 -- -- 51
2020-01-07 17:00:00 12.6 12 Noroeste 19 Noroeste 0 -- -- 41
2020-01-07 16:00:00 15.1 14 Sudoeste 26 Sudoeste 0 -- -- 30
2020-01-07 15:00:00 14.5 17 Sudoeste 23 Sudoeste 0 -- -- 28
2020-01-07 14:00:00 14 4 Norte 14 Norte 0 -- -- 39
2020-01-07 13:00:00 13 9 Sudoeste 16 Sudoeste 0 -- -- 39
2020-01-07 12:00:00 9.9 13 Sudoeste 18 Sudoeste 0 -- -- 46
2020-01-07 11:00:00 5.8 0 Calma 6 Sur 0 -- -- 61
2020-01-07 10:00:00 1.5 4 Sudoeste 12 Sudoeste 0 -- -- 72
2020-01-07 09:00:00 -1.9 7 Sudoeste 13 Sudoeste 0 -- -- 78
2020-01-07 08:00:00 -2.4 0 Calma 9 Sudoeste 0 -- -- 76
2020-01-07 07:00:00 -1.6 2 Oeste 14 Oeste 0 -- -- 74
2020-01-07 06:00:00 -1.8 8 Sudoeste 11 Sudoeste 0 -- -- 76
2020-01-07 05:00:00 -0.3 6 Sudoeste 16 Oeste 0 -- -- 75
2020-01-07 04:00:00 1 13 Sudoeste 18 Sudoeste 0 -- -- 74
2020-01-07 03:00:00 -0.1 11 Sudoeste 14 Oeste 0 -- -- 78
2020-01-07 02:00:00 0 11 Sudoeste 17 Sudoeste 0 -- -- 81
2020-01-07 01:00:00 0.1 8 Sudoeste 13 Oeste 0 -- -- 80
2020-01-07 00:00:00 1.3 10 Sudoeste 14 Sudoeste 0 -- -- 78
2020-01-06 23:00:00 0.8 9 Sudoeste 15 Sudoeste 0 -- -- 78
2020-01-06 22:00:00 2.9 10 Sudoeste 12 Sudoeste 0 -- -- 75
2020-01-06 21:00:00 3.1 7 Sudoeste 14 Sudoeste 0 -- -- 70
2020-01-06 20:00:00 3.9 8 Sudoeste 15 Sudoeste 0 -- -- 68
2020-01-06 19:00:00 4.8 8 Sudoeste 14 Sudoeste 0 -- -- 68
2020-01-06 18:00:00 10 0 Calma 5 Este 0 -- -- 53
2020-01-06 17:00:00 14.2 3 Nordeste 9 Este 0 -- -- 46
2020-01-06 16:00:00 14.9 5 Nordeste 10 Nordeste 0 -- -- 44
2020-01-06 15:00:00 13.9 6 Este 10 Este 0 -- -- 50
2020-01-06 14:00:00 10.8 7 Nordeste 12 Nordeste 0 -- -- 57
2020-01-06 13:00:00 8.4 5 Nordeste 10 Nordeste 0 -- -- 63
2020-01-06 12:00:00 6.7 7 Nordeste 10 Nordeste 0 -- -- 63
2020-01-06 11:00:00 3.9 3 Nordeste 5 Nordeste 0 -- -- 72
2020-01-06 10:00:00 0.2 0 Calma 5 Sudoeste 0 -- -- 85